Weather reports worldwide

Advertisment
Loja, Spain (8414): temperature & dewpoint: 06.12.2019 17:00:00 - 12.12.2019 17:00:00 (CET)Loja, Spain (8414): wind speed & gusts: 06.12.2019 17:00:00 - 12.12.2019 17:00:00 (CET)Loja, Spain (8414): wind direction: 06.12.2019 17:00:00 - 12.12.2019 17:00:00 (CET)Loja, Spain (8414): reduced air pressure: 06.12.2019 17:00:00 - 12.12.2019 17:00:00 (CET)Loja, Spain (8414): precipitation: 06.12.2019 17:00:00 - 12.12.2019 17:00:00 (CET)
Date & Time tt [°C] td [°C] ff [km/h] ff [kn] fx [km/h] fx [kn] dd ppp [hPa] rr [mm]
12.12.2019 17:00:00 - - - - - - - - -
12.12.2019 16:00:00 10,0 1,1 11 6 34 19 WNW 1044,3 0,0
12.12.2019 15:00:00 10,4 0,2 14 7 32 18 WNW 1044,1 0,0
12.12.2019 14:00:00 9,8 -0,5 12 7 23 12 WNW 1045,1 0,0
12.12.2019 13:00:00 10,2 -0,3 8 4 18 10 WNW 1046,3 -
12.12.2019 12:00:00 8,8 0,4 4 2 10 5 N 1048,3 0,0
12.12.2019 11:00:00 6,1 0,9 2 1 8 5 NE 1049,3 0,0
12.12.2019 10:00:00 4,6 0,0 1 1 10 5 W 1048,9 0,0
12.12.2019 09:00:00 4,2 1,3 4 2 16 8 WSW 1049,7 0,0
12.12.2019 08:00:00 4,1 1,1 5 3 15 8 W 1048,6 0,0
12.12.2019 07:00:00 4,6 1,1 7 4 24 13 NW 1048,5 -
12.12.2019 06:00:00 6,3 0,4 10 5 23 12 WNW 1047,8 0,0
12.12.2019 05:00:00 7,7 0,6 9 5 26 14 W 1047,4 0,0
12.12.2019 04:00:00 7,9 2,7 8 4 22 12 W 1047,6 0,0
12.12.2019 03:00:00 4,2 1,7 5 3 15 8 WNW 1049,0 0,0
12.12.2019 02:00:00 6,0 3,0 1 1 6 4 W 1048,5 0,0
12.12.2019 01:00:00 7,5 3,9 4 2 8 5 SSE 1048,2 -
12.12.2019 00:00:00 8,2 3,4 2 1 8 4 WSW 1049,2 0,0
11.12.2019 23:00:00 9,2 4,8 3 2 12 7 W 1048,5 0,0
11.12.2019 22:00:00 9,6 4,8 6 3 20 11 W 1048,0 0,0
11.12.2019 21:00:00 9,7 5,0 5 3 28 15 W 1047,6 0,0
11.12.2019 20:00:00 10,7 4,8 8 4 26 14 W 1047,3 0,0
11.12.2019 19:00:00 11,4 2,5 10 5 31 17 W 1046,5 -
11.12.2019 18:00:00 12,1 1,7 10 5 29 16 W 1045,6 0,0
11.12.2019 17:00:00 12,8 1,1 11 6 27 14 W 1044,2 0,0
11.12.2019 16:00:00 13,4 -1,4 10 6 31 17 WNW 1043,2 0,0
11.12.2019 15:00:00 13,8 -4,8 10 5 26 14 W 1043,3 0,0
11.12.2019 14:00:00 13,5 -1,2 9 5 22 12 W 1044,2 0,0
11.12.2019 13:00:00 13,0 0,6 3 2 14 7 NW 1045,3 -
11.12.2019 12:00:00 9,6 -0,7 0 0 7 4 NW 1047,4 0,0
11.12.2019 11:00:00 6,2 -0,7 1 1 5 3 NE 1048,7 0,0
11.12.2019 10:00:00 3,4 -0,7 0 0 6 3 N 1049,6 0,0
11.12.2019 09:00:00 3,1 -2,0 1 1 13 7 E 1049,5 0,0
11.12.2019 08:00:00 3,7 -1,4 0 0 11 6 NE 1048,9 0,0
11.12.2019 07:00:00 3,7 -1,2 1 1 10 5 NNE 1048,5 -
11.12.2019 06:00:00 4,3 -1,2 1 1 9 5 E 1048,2 0,0
11.12.2019 05:00:00 5,0 -1,7 2 1 16 8 E 1048,0 0,0
11.12.2019 04:00:00 5,1 -1,2 2 1 15 8 ENE 1048,2 0,0
11.12.2019 03:00:00 5,3 0,0 0 0 6 3 E 1048,1 0,0
11.12.2019 02:00:00 5,4 -0,5 0 0 4 2 SSW 1048,4 0,0
11.12.2019 01:00:00 6,3 -0,7 0 0 4 2 W 1048,4 -
11.12.2019 00:00:00 7,0 -1,7 0 0 4 2 N 1048,7 0,0
10.12.2019 23:00:00 8,5 -2,7 0 0 8 4 SE 1047,7 0,0
10.12.2019 22:00:00 10,4 -2,7 5 3 13 7 SW 1047,0 0,0
10.12.2019 21:00:00 11,7 -3,3 7 4 17 9 W 1046,7 0,0
10.12.2019 20:00:00 12,8 -3,6 8 4 17 9 W 1046,4 0,0
10.12.2019 19:00:00 13,3 -5,4 10 5 19 11 W 1045,6 -
10.12.2019 18:00:00 15,0 -7,1 8 4 19 10 W 1044,7 0,0
10.12.2019 17:00:00 16,0 -5,7 10 5 21 11 W 1044,2 0,0
10.12.2019 16:00:00 16,4 -4,2 9 5 17 9 W 1044,2 0,0
10.12.2019 15:00:00 17,8 -3,0 1 0 6 3 S 1044,3 0,0
10.12.2019 14:00:00 14,6 -2,0 2 1 9 5 NE 1045,7 0,0
10.12.2019 13:00:00 13,3 -2,7 1 1 21 11 NNE 1047,2 -
10.12.2019 12:00:00 10,8 -3,0 8 4 27 14 ENE 1048,8 0,0
10.12.2019 11:00:00 8,5 -2,5 9 5 30 16 ENE 1050,0 0,0
10.12.2019 10:00:00 6,2 -0,5 12 6 32 17 E 1050,5 0,0
10.12.2019 09:00:00 5,5 -0,5 10 6 29 16 ENE 1050,6 0,0
10.12.2019 08:00:00 5,5 0,9 10 6 28 15 NE 1050,8 0,0
10.12.2019 07:00:00 7,5 0,0 14 8 31 17 ESE 1049,7 -
10.12.2019 06:00:00 8,8 2,1 13 7 32 18 E 1048,8 0,0
10.12.2019 05:00:00 8,4 3,6 7 4 30 16 E 1049,4 0,0
10.12.2019 04:00:00 9,3 5,1 10 6 27 15 E 1049,5 0,0
10.12.2019 03:00:00 9,0 5,9 8 4 23 13 E 1049,4 0,0
10.12.2019 02:00:00 9,5 6,4 6 4 18 10 ENE 1049,7 0,0
10.12.2019 01:00:00 8,9 6,2 2 1 15 8 NE 1050,7 -
10.12.2019 00:00:00 9,1 6,5 1 1 5 3 NW 1050,3 0,0
09.12.2019 23:00:00 10,2 7,1 3 2 7 4 W 1050,2 0,0
09.12.2019 22:00:00 11,5 7,8 4 2 13 7 W 1049,6 0,0
09.12.2019 21:00:00 12,2 8,1 8 4 15 8 W 1049,1 0,0
09.12.2019 20:00:00 11,9 7,8 7 4 14 8 WNW 1049,0 0,0
09.12.2019 19:00:00 12,8 7,7 5 3 14 8 W 1048,4 -
09.12.2019 18:00:00 13,7 7,4 8 5 19 10 W 1048,0 0,0
09.12.2019 17:00:00 14,7 6,7 7 4 14 7 W 1047,4 0,0
09.12.2019 16:00:00 15,6 5,5 3 1 16 9 W 1046,8 0,0
09.12.2019 15:00:00 15,4 6,1 6 3 16 9 WNW 1047,2 0,0
09.12.2019 14:00:00 14,4 5,8 7 4 15 8 WNW 1048,0 0,0
09.12.2019 13:00:00 13,5 5,6 2 1 6 3 WNW 1049,1 -
09.12.2019 12:00:00 11,9 5,1 3 2 6 3 NNE 1050,4 0,0
09.12.2019 11:00:00 10,8 5,8 1 1 4 2 NW 1050,4 0,0
09.12.2019 10:00:00 9,8 6,1 0 0 6 3 ESE 1050,4 0,0
09.12.2019 09:00:00 9,4 6,1 0 0 9 5 E 1050,2 0,0
09.12.2019 08:00:00 11,4 6,5 4 2 12 7 W 1048,7 0,0
09.12.2019 07:00:00 11,5 6,7 3 2 5 3 SW 1048,0 -
09.12.2019 06:00:00 11,4 5,9 3 1 8 5 W 1048,0 0,0
09.12.2019 05:00:00 10,8 5,8 2 1 10 6 WSW 1048,1 0,0
09.12.2019 04:00:00 11,3 5,6 1 1 10 6 NW 1048,5 0,0
09.12.2019 03:00:00 10,8 5,0 3 2 10 5 NW 1048,6 0,0
09.12.2019 02:00:00 12,1 4,8 3 2 19 10 W 1047,9 0,0
09.12.2019 01:00:00 10,5 5,0 6 3 14 8 W 1048,9 -
09.12.2019 00:00:00 9,4 2,1 6 3 16 9 WNW 1049,1 0,0
08.12.2019 23:00:00 11,5 3,6 5 3 11 6 W 1047,9 0,0
08.12.2019 22:00:00 - - - - - - - - -
08.12.2019 21:00:00 12,3 1,3 6 4 21 11 W 1047,3 0,0
08.12.2019 20:00:00 12,9 1,9 9 5 22 12 WNW 1046,6 0,0
08.12.2019 19:00:00 - - - - - - - - -
08.12.2019 18:00:00 - - - - - - - - -
08.12.2019 17:00:00 13,8 1,7 6 3 21 12 W 1045,0 0,0
08.12.2019 16:00:00 14,5 1,1 8 5 22 12 WNW 1044,6 0,0
08.12.2019 15:00:00 15,2 0,6 6 3 19 10 NW 1044,3 0,0
08.12.2019 14:00:00 14,8 2,7 3 1 10 5 WNW 1045,0 0,0
08.12.2019 13:00:00 10,8 2,3 2 1 8 5 NE 1047,3 -
08.12.2019 12:00:00 8,9 2,3 3 1 9 5 NE 1049,2 0,0
08.12.2019 11:00:00 7,0 2,3 3 2 10 5 ENE 1049,6 0,0
08.12.2019 10:00:00 5,4 2,9 1 1 18 10 ESE 1049,8 0,0
08.12.2019 09:00:00 6,7 4,1 3 1 9 5 E 1048,8 0,0
08.12.2019 08:00:00 4,8 2,3 0 0 10 5 N 1049,0 0,0
08.12.2019 07:00:00 4,8 2,3 1 1 10 6 E 1048,7 -
08.12.2019 06:00:00 5,8 3,2 3 2 16 8 E 1047,7 0,0
08.12.2019 05:00:00 5,7 3,4 1 1 9 5 ESE 1047,8 0,0
08.12.2019 04:00:00 5,4 2,9 0 0 10 6 ENE 1048,3 0,0
08.12.2019 03:00:00 5,8 3,4 0 0 6 4 SE 1048,2 0,0
08.12.2019 02:00:00 6,0 3,4 0 0 6 3 SE 1047,9 0,0
08.12.2019 01:00:00 7,4 4,3 2 1 6 3 ESE 1047,7 -
08.12.2019 00:00:00 8,3 4,6 1 1 5 3 S 1047,2 0,0
07.12.2019 23:00:00 8,9 5,0 3 2 5 3 ESE 1046,8 0,0
07.12.2019 22:00:00 9,5 5,1 5 3 11 6 WNW 1046,1 0,0
07.12.2019 21:00:00 10,0 4,6 4 2 9 5 WNW 1045,7 0,0
07.12.2019 20:00:00 13,0 3,4 5 3 18 10 W 1044,2 0,0
07.12.2019 19:00:00 13,5 3,0 8 4 18 10 WSW 1043,4 -
07.12.2019 18:00:00 13,9 3,4 8 4 14 8 WSW 1042,9 0,0
07.12.2019 17:00:00 14,1 3,2 4 2 11 6 WSW 1042,0 0,0
07.12.2019 16:00:00 14,6 2,1 5 3 11 6 WSW 1041,4 0,0
07.12.2019 15:00:00 17,6 2,3 0 0 8 4 SW 1040,3 0,0
07.12.2019 14:00:00 14,0 1,9 1 1 8 4 NE 1041,9 0,0
07.12.2019 13:00:00 12,8 3,4 4 2 10 6 NE 1043,0 -
07.12.2019 12:00:00 11,0 3,8 6 3 20 11 NE 1044,5 0,0
07.12.2019 11:00:00 9,2 3,4 10 5 22 12 E 1045,3 0,0
07.12.2019 10:00:00 8,4 4,3 8 4 20 11 ENE 1044,6 0,0
07.12.2019 09:00:00 7,3 4,3 7 4 21 11 E 1044,7 0,0
07.12.2019 08:00:00 7,9 4,3 7 4 21 12 E 1044,0 0,0
07.12.2019 07:00:00 8,6 4,5 11 6 23 12 ESE 1043,3 -
07.12.2019 06:00:00 8,4 4,3 9 5 20 11 E 1043,1 0,0
07.12.2019 05:00:00 8,5 4,1 8 4 22 12 E 1043,0 0,0
07.12.2019 04:00:00 8,8 3,9 7 4 19 11 E 1043,0 0,0
07.12.2019 03:00:00 9,7 3,9 5 3 22 12 E 1042,7 0,0
07.12.2019 02:00:00 9,7 3,6 8 4 19 11 ESE 1042,4 0,0
07.12.2019 01:00:00 11,7 2,5 11 6 28 15 SSE 1041,8 -
07.12.2019 00:00:00 12,0 2,5 12 6 24 13 SSE 1041,7 0,0
06.12.2019 23:00:00 11,5 3,0 6 3 23 13 SE 1041,4 0,0
06.12.2019 22:00:00 13,0 1,9 10 5 26 14 SSE 1040,8 0,0
06.12.2019 21:00:00 12,9 1,9 8 5 23 12 SSE 1040,4 0,0
06.12.2019 20:00:00 13,4 2,9 6 3 13 7 SSE 1039,8 0,0
06.12.2019 19:00:00 13,6 1,9 1 1 13 7 WSW 1038,9 -
06.12.2019 18:00:00 13,8 1,7 9 5 12 7 SSW 1038,1 0,0
06.12.2019 17:00:00 13,9 1,9 6 3 10 5 SSW 1037,8 0,0

tt = temperature
td = dewpoint
ff = wind speed
fx = gusts
dd = wind direction
ppp = reduced air pressure
rr = precipitation

Next stations